sensor_id;sensor_type;location;lat;lon;timestamp;P1;durP1;ratioP1;P2;durP2;ratioP2
5591;SDS011;2818;49.790;9.958;2022-12-11T00:00:48;24.50;;;15.20;;
5591;SDS011;2818;49.790;9.958;2022-12-11T00:03:15;24.10;;;14.53;;
5591;SDS011;2818;49.790;9.958;2022-12-11T00:05:44;23.60;;;15.00;;
5591;SDS011;2818;49.790;9.958;2022-12-11T00:08:11;23.93;;;14.57;;
5591;SDS011;2818;49.790;9.958;2022-12-11T00:10:39;22.30;;;14.00;;
5591;SDS011;2818;49.790;9.958;2022-12-11T00:13:13;26.00;;;14.57;;
5591;SDS011;2818;49.790;9.958;2022-12-11T00:15:40;25.50;;;15.10;;
5591;SDS011;2818;49.790;9.958;2022-12-11T00:18:08;21.50;;;13.40;;
5591;SDS011;2818;49.790;9.958;2022-12-11T00:20:39;25.90;;;15.37;;
5591;SDS011;2818;49.790;9.958;2022-12-11T00:23:06;21.60;;;14.50;;
5591;SDS011;2818;49.790;9.958;2022-12-11T00:25:33;24.03;;;15.03;;
5591;SDS011;2818;49.790;9.958;2022-12-11T00:28:00;23.27;;;14.20;;
5591;SDS011;2818;49.790;9.958;2022-12-11T00:30:27;23.33;;;13.93;;
5591;SDS011;2818;49.790;9.958;2022-12-11T00:32:53;24.93;;;14.20;;
5591;SDS011;2818;49.790;9.958;2022-12-11T00:35:20;26.00;;;15.60;;
5591;SDS011;2818;49.790;9.958;2022-12-11T00:37:47;24.30;;;14.20;;
5591;SDS011;2818;49.790;9.958;2022-12-11T00:40:14;26.53;;;15.37;;
5591;SDS011;2818;49.790;9.958;2022-12-11T00:42:42;23.53;;;14.57;;
5591;SDS011;2818;49.790;9.958;2022-12-11T00:45:09;27.03;;;15.03;;
5591;SDS011;2818;49.790;9.958;2022-12-11T00:47:37;22.93;;;14.03;;
5591;SDS011;2818;49.790;9.958;2022-12-11T00:50:04;22.93;;;13.60;;
5591;SDS011;2818;49.790;9.958;2022-12-11T00:52:31;22.60;;;14.23;;
5591;SDS011;2818;49.790;9.958;2022-12-11T00:54:58;24.33;;;14.13;;
5591;SDS011;2818;49.790;9.958;2022-12-11T00:57:25;19.60;;;12.60;;
5591;SDS011;2818;49.790;9.958;2022-12-11T00:59:52;21.30;;;12.93;;
5591;SDS011;2818;49.790;9.958;2022-12-11T01:02:18;18.10;;;12.13;;
5591;SDS011;2818;49.790;9.958;2022-12-11T01:04:48;19.10;;;13.13;;
5591;SDS011;2818;49.790;9.958;2022-12-11T01:07:17;15.00;;;10.40;;
5591;SDS011;2818;49.790;9.958;2022-12-11T01:09:44;17.67;;;11.43;;
5591;SDS011;2818;49.790;9.958;2022-12-11T01:12:30;17.53;;;11.73;;
5591;SDS011;2818;49.790;9.958;2022-12-11T01:14:57;18.23;;;11.83;;
5591;SDS011;2818;49.790;9.958;2022-12-11T01:17:24;15.43;;;10.60;;
5591;SDS011;2818;49.790;9.958;2022-12-11T01:19:52;18.10;;;11.30;;
5591;SDS011;2818;49.790;9.958;2022-12-11T01:22:19;18.20;;;11.87;;
5591;SDS011;2818;49.790;9.958;2022-12-11T01:24:46;17.17;;;11.40;;
5591;SDS011;2818;49.790;9.958;2022-12-11T01:27:13;17.53;;;11.23;;
5591;SDS011;2818;49.790;9.958;2022-12-11T01:29:41;16.50;;;10.83;;
5591;SDS011;2818;49.790;9.958;2022-12-11T01:32:07;21.20;;;12.93;;
5591;SDS011;2818;49.790;9.958;2022-12-11T01:34:34;17.50;;;11.70;;
5591;SDS011;2818;49.790;9.958;2022-12-11T01:37:01;18.70;;;11.90;;
5591;SDS011;2818;49.790;9.958;2022-12-11T01:39:28;16.97;;;11.47;;
5591;SDS011;2818;49.790;9.958;2022-12-11T01:41:59;19.60;;;12.50;;
5591;SDS011;2818;49.790;9.958;2022-12-11T01:46:56;17.77;;;11.83;;
5591;SDS011;2818;49.790;9.958;2022-12-11T01:49:24;16.00;;;10.80;;
5591;SDS011;2818;49.790;9.958;2022-12-11T01:51:54;16.53;;;11.40;;
5591;SDS011;2818;49.790;9.958;2022-12-11T01:54:28;14.67;;;11.00;;
5591;SDS011;2818;49.790;9.958;2022-12-11T01:56:56;12.20;;;8.63;;
5591;SDS011;2818;49.790;9.958;2022-12-11T01:59:28;12.23;;;9.30;;
5591;SDS011;2818;49.790;9.958;2022-12-11T02:02:06;13.93;;;9.40;;
5591;SDS011;2818;49.790;9.958;2022-12-11T02:04:38;12.33;;;9.60;;
5591;SDS011;2818;49.790;9.958;2022-12-11T02:07:08;13.10;;;9.13;;
5591;SDS011;2818;49.790;9.958;2022-12-11T02:09:36;12.37;;;9.10;;
5591;SDS011;2818;49.790;9.958;2022-12-11T02:17:37;14.00;;;9.60;;
5591;SDS011;2818;49.790;9.958;2022-12-11T02:23:15;13.93;;;9.83;;
5591;SDS011;2818;49.790;9.958;2022-12-11T02:29:06;16.00;;;10.73;;
5591;SDS011;2818;49.790;9.958;2022-12-11T02:31:39;14.50;;;10.27;;
5591;SDS011;2818;49.790;9.958;2022-12-11T02:36:47;16.50;;;10.30;;
5591;SDS011;2818;49.790;9.958;2022-12-11T02:39:19;15.63;;;10.50;;
5591;SDS011;2818;49.790;9.958;2022-12-11T02:41:49;17.10;;;11.33;;
5591;SDS011;2818;49.790;9.958;2022-12-11T02:44:21;18.37;;;10.90;;
5591;SDS011;2818;49.790;9.958;2022-12-11T02:46:51;17.83;;;12.03;;
5591;SDS011;2818;49.790;9.958;2022-12-11T02:49:19;20.87;;;12.70;;
5591;SDS011;2818;49.790;9.958;2022-12-11T02:51:48;19.70;;;12.57;;
5591;SDS011;2818;49.790;9.958;2022-12-11T02:54:21;18.00;;;12.43;;
5591;SDS011;2818;49.790;9.958;2022-12-11T02:57:30;22.83;;;12.97;;
5591;SDS011;2818;49.790;9.958;2022-12-11T02:59:53;19.80;;;12.93;;
5591;SDS011;2818;49.790;9.958;2022-12-11T03:02:20;21.43;;;13.50;;
5591;SDS011;2818;49.790;9.958;2022-12-11T03:04:48;22.80;;;13.60;;
5591;SDS011;2818;49.790;9.958;2022-12-11T03:07:20;20.27;;;13.37;;
5591;SDS011;2818;49.790;9.958;2022-12-11T03:09:52;19.63;;;13.03;;
5591;SDS011;2818;49.790;9.958;2022-12-11T03:12:20;22.50;;;12.70;;
5591;SDS011;2818;49.790;9.958;2022-12-11T03:14:53;22.13;;;13.23;;
5591;SDS011;2818;49.790;9.958;2022-12-11T03:17:22;25.30;;;15.60;;
5591;SDS011;2818;49.790;9.958;2022-12-11T03:19:54;21.67;;;14.17;;
5591;SDS011;2818;49.790;9.958;2022-12-11T03:22:33;21.10;;;13.63;;
5591;SDS011;2818;49.790;9.958;2022-12-11T03:25:21;25.17;;;14.63;;
5591;SDS011;2818;49.790;9.958;2022-12-11T03:27:57;26.50;;;14.40;;
5591;SDS011;2818;49.790;9.958;2022-12-11T03:30:34;26.80;;;15.07;;
5591;SDS011;2818;49.790;9.958;2022-12-11T03:33:04;23.47;;;14.80;;
5591;SDS011;2818;49.790;9.958;2022-12-11T03:35:43;26.27;;;14.10;;
5591;SDS011;2818;49.790;9.958;2022-12-11T03:38:23;24.97;;;14.77;;
5591;SDS011;2818;49.790;9.958;2022-12-11T03:40:57;29.20;;;16.40;;
5591;SDS011;2818;49.790;9.958;2022-12-11T03:43:27;23.77;;;14.63;;
5591;SDS011;2818;49.790;9.958;2022-12-11T03:45:57;26.73;;;15.27;;
5591;SDS011;2818;49.790;9.958;2022-12-11T03:48:28;25.53;;;16.07;;
5591;SDS011;2818;49.790;9.958;2022-12-11T03:50:59;28.87;;;16.20;;
5591;SDS011;2818;49.790;9.958;2022-12-11T03:53:30;27.87;;;16.00;;
5591;SDS011;2818;49.790;9.958;2022-12-11T03:56:00;27.27;;;16.40;;
5591;SDS011;2818;49.790;9.958;2022-12-11T03:58:29;27.50;;;15.77;;
5591;SDS011;2818;49.790;9.958;2022-12-11T04:00:57;26.97;;;15.97;;
5591;SDS011;2818;49.790;9.958;2022-12-11T04:03:24;28.13;;;16.30;;
5591;SDS011;2818;49.790;9.958;2022-12-11T04:05:52;27.17;;;16.50;;
5591;SDS011;2818;49.790;9.958;2022-12-11T04:08:20;29.27;;;16.53;;
5591;SDS011;2818;49.790;9.958;2022-12-11T04:10:49;54.93;;;26.53;;
5591;SDS011;2818;49.790;9.958;2022-12-11T04:13:39;32.07;;;17.37;;
5591;SDS011;2818;49.790;9.958;2022-12-11T04:16:07;25.50;;;15.87;;
5591;SDS011;2818;49.790;9.958;2022-12-11T04:18:34;30.83;;;16.87;;
5591;SDS011;2818;49.790;9.958;2022-12-11T04:21:19;27.50;;;16.23;;
5591;SDS011;2818;49.790;9.958;2022-12-11T04:24:05;25.40;;;15.07;;
5591;SDS011;2818;49.790;9.958;2022-12-11T04:26:45;25.20;;;15.70;;
5591;SDS011;2818;49.790;9.958;2022-12-11T04:29:13;28.83;;;16.00;;
5591;SDS011;2818;49.790;9.958;2022-12-11T04:31:40;23.93;;;14.87;;
5591;SDS011;2818;49.790;9.958;2022-12-11T04:34:07;25.23;;;15.37;;
5591;SDS011;2818;49.790;9.958;2022-12-11T04:36:34;28.63;;;15.80;;
5591;SDS011;2818;49.790;9.958;2022-12-11T04:39:02;24.60;;;15.33;;
5591;SDS011;2818;49.790;9.958;2022-12-11T04:41:30;26.10;;;15.83;;
5591;SDS011;2818;49.790;9.958;2022-12-11T04:43:57;23.67;;;14.63;;
5591;SDS011;2818;49.790;9.958;2022-12-11T04:46:24;24.67;;;15.03;;
5591;SDS011;2818;49.790;9.958;2022-12-11T04:48:51;26.10;;;15.43;;
5591;SDS011;2818;49.790;9.958;2022-12-11T04:51:22;24.10;;;15.13;;
5591;SDS011;2818;49.790;9.958;2022-12-11T04:53:50;22.60;;;14.53;;
5591;SDS011;2818;49.790;9.958;2022-12-11T04:56:17;22.57;;;13.90;;
5591;SDS011;2818;49.790;9.958;2022-12-11T04:58:44;24.23;;;14.27;;
5591;SDS011;2818;49.790;9.958;2022-12-11T05:01:13;21.07;;;13.53;;
5591;SDS011;2818;49.790;9.958;2022-12-11T05:03:47;23.80;;;13.57;;
5591;SDS011;2818;49.790;9.958;2022-12-11T05:06:14;23.83;;;14.00;;
5591;SDS011;2818;49.790;9.958;2022-12-11T05:08:41;22.10;;;13.60;;
5591;SDS011;2818;49.790;9.958;2022-12-11T05:11:11;23.23;;;13.97;;
5591;SDS011;2818;49.790;9.958;2022-12-11T05:13:40;24.17;;;14.30;;
5591;SDS011;2818;49.790;9.958;2022-12-11T05:16:08;26.80;;;14.37;;
5591;SDS011;2818;49.790;9.958;2022-12-11T05:18:36;21.43;;;12.80;;
5591;SDS011;2818;49.790;9.958;2022-12-11T05:21:04;24.90;;;14.50;;
5591;SDS011;2818;49.790;9.958;2022-12-11T05:23:33;25.07;;;14.17;;
5591;SDS011;2818;49.790;9.958;2022-12-11T05:26:01;23.47;;;14.07;;
5591;SDS011;2818;49.790;9.958;2022-12-11T05:28:30;21.83;;;12.67;;
5591;SDS011;2818;49.790;9.958;2022-12-11T05:31:06;23.13;;;13.57;;
5591;SDS011;2818;49.790;9.958;2022-12-11T05:33:38;23.77;;;14.47;;
5591;SDS011;2818;49.790;9.958;2022-12-11T05:36:05;23.20;;;14.77;;
5591;SDS011;2818;49.790;9.958;2022-12-11T05:38:33;22.83;;;13.93;;
5591;SDS011;2818;49.790;9.958;2022-12-11T05:41:01;21.20;;;13.20;;
5591;SDS011;2818;49.790;9.958;2022-12-11T05:43:29;23.40;;;13.87;;
5591;SDS011;2818;49.790;9.958;2022-12-11T05:46:17;24.63;;;14.40;;
5591;SDS011;2818;49.790;9.958;2022-12-11T05:48:49;21.80;;;13.07;;
5591;SDS011;2818;49.790;9.958;2022-12-11T05:51:18;24.27;;;14.90;;
5591;SDS011;2818;49.790;9.958;2022-12-11T05:53:46;20.73;;;13.50;;
5591;SDS011;2818;49.790;9.958;2022-12-11T05:56:18;24.40;;;14.70;;
5591;SDS011;2818;49.790;9.958;2022-12-11T05:58:57;22.33;;;12.83;;
5591;SDS011;2818;49.790;9.958;2022-12-11T06:04:05;21.70;;;13.33;;
5591;SDS011;2818;49.790;9.958;2022-12-11T06:06:33;22.60;;;13.30;;
5591;SDS011;2818;49.790;9.958;2022-12-11T06:09:01;22.50;;;14.00;;
5591;SDS011;2818;49.790;9.958;2022-12-11T06:11:29;24.33;;;14.27;;
5591;SDS011;2818;49.790;9.958;2022-12-11T06:13:57;23.50;;;13.60;;
5591;SDS011;2818;49.790;9.958;2022-12-11T06:16:24;26.40;;;14.87;;
5591;SDS011;2818;49.790;9.958;2022-12-11T06:18:51;24.93;;;14.90;;
5591;SDS011;2818;49.790;9.958;2022-12-11T06:21:24;21.03;;;13.40;;
5591;SDS011;2818;49.790;9.958;2022-12-11T06:23:56;21.40;;;13.23;;
5591;SDS011;2818;49.790;9.958;2022-12-11T06:26:24;25.77;;;12.80;;
5591;SDS011;2818;49.790;9.958;2022-12-11T06:28:52;24.40;;;13.23;;
5591;SDS011;2818;49.790;9.958;2022-12-11T06:31:19;20.57;;;12.43;;
5591;SDS011;2818;49.790;9.958;2022-12-11T06:33:46;22.13;;;13.00;;
5591;SDS011;2818;49.790;9.958;2022-12-11T06:36:14;23.47;;;13.57;;
5591;SDS011;2818;49.790;9.958;2022-12-11T06:38:43;23.97;;;14.80;;
5591;SDS011;2818;49.790;9.958;2022-12-11T06:41:10;24.33;;;14.90;;
5591;SDS011;2818;49.790;9.958;2022-12-11T06:43:38;28.10;;;15.00;;
5591;SDS011;2818;49.790;9.958;2022-12-11T06:46:10;24.03;;;14.40;;
5591;SDS011;2818;49.790;9.958;2022-12-11T06:48:39;26.97;;;15.50;;
5591;SDS011;2818;49.790;9.958;2022-12-11T06:51:08;26.80;;;14.93;;
5591;SDS011;2818;49.790;9.958;2022-12-11T06:53:53;24.67;;;15.20;;
5591;SDS011;2818;49.790;9.958;2022-12-11T06:56:22;25.53;;;15.67;;
5591;SDS011;2818;49.790;9.958;2022-12-11T06:58:50;26.43;;;15.87;;
5591;SDS011;2818;49.790;9.958;2022-12-11T07:01:21;23.50;;;14.80;;
5591;SDS011;2818;49.790;9.958;2022-12-11T07:03:54;29.20;;;14.37;;
5591;SDS011;2818;49.790;9.958;2022-12-11T07:06:25;21.77;;;13.60;;
5591;SDS011;2818;49.790;9.958;2022-12-11T07:08:54;22.70;;;13.80;;
5591;SDS011;2818;49.790;9.958;2022-12-11T07:11:21;24.40;;;15.73;;
5591;SDS011;2818;49.790;9.958;2022-12-11T07:13:49;26.77;;;16.10;;
5591;SDS011;2818;49.790;9.958;2022-12-11T07:16:16;26.17;;;14.80;;
5591;SDS011;2818;49.790;9.958;2022-12-11T07:18:47;26.90;;;13.17;;
5591;SDS011;2818;49.790;9.958;2022-12-11T07:21:15;22.53;;;13.00;;
5591;SDS011;2818;49.790;9.958;2022-12-11T07:23:43;22.00;;;12.80;;
5591;SDS011;2818;49.790;9.958;2022-12-11T07:26:11;18.00;;;12.67;;
5591;SDS011;2818;49.790;9.958;2022-12-11T07:28:41;27.50;;;14.17;;
5591;SDS011;2818;49.790;9.958;2022-12-11T07:31:09;21.47;;;13.30;;
5591;SDS011;2818;49.790;9.958;2022-12-11T07:33:38;24.90;;;13.33;;
5591;SDS011;2818;49.790;9.958;2022-12-11T07:36:06;22.30;;;13.10;;
5591;SDS011;2818;49.790;9.958;2022-12-11T07:38:34;20.53;;;12.80;;
5591;SDS011;2818;49.790;9.958;2022-12-11T07:41:02;19.67;;;12.20;;
5591;SDS011;2818;49.790;9.958;2022-12-11T07:43:30;21.00;;;13.50;;
5591;SDS011;2818;49.790;9.958;2022-12-11T07:46:01;20.07;;;12.90;;
5591;SDS011;2818;49.790;9.958;2022-12-11T07:48:30;18.43;;;12.30;;
5591;SDS011;2818;49.790;9.958;2022-12-11T07:51:06;16.67;;;11.07;;
5591;SDS011;2818;49.790;9.958;2022-12-11T07:53:34;14.23;;;9.97;;
5591;SDS011;2818;49.790;9.958;2022-12-11T07:56:01;18.77;;;11.07;;
5591;SDS011;2818;49.790;9.958;2022-12-11T07:58:28;17.20;;;11.30;;
5591;SDS011;2818;49.790;9.958;2022-12-11T08:00:55;17.40;;;11.60;;
5591;SDS011;2818;49.790;9.958;2022-12-11T08:03:23;14.67;;;10.50;;
5591;SDS011;2818;49.790;9.958;2022-12-11T08:05:50;18.40;;;11.80;;
5591;SDS011;2818;49.790;9.958;2022-12-11T08:08:18;18.30;;;11.27;;
5591;SDS011;2818;49.790;9.958;2022-12-11T08:10:45;16.07;;;11.00;;
5591;SDS011;2818;49.790;9.958;2022-12-11T08:13:12;14.40;;;10.30;;
5591;SDS011;2818;49.790;9.958;2022-12-11T08:15:39;17.17;;;10.10;;
5591;SDS011;2818;49.790;9.958;2022-12-11T08:18:05;13.50;;;9.80;;
5591;SDS011;2818;49.790;9.958;2022-12-11T08:20:32;16.23;;;10.97;;
5591;SDS011;2818;49.790;9.958;2022-12-11T08:22:59;17.57;;;10.97;;
5591;SDS011;2818;49.790;9.958;2022-12-11T08:25:26;15.47;;;10.40;;
5591;SDS011;2818;49.790;9.958;2022-12-11T08:27:53;17.93;;;10.63;;
5591;SDS011;2818;49.790;9.958;2022-12-11T08:30:20;12.90;;;9.63;;
5591;SDS011;2818;49.790;9.958;2022-12-11T08:32:47;17.57;;;10.90;;
5591;SDS011;2818;49.790;9.958;2022-12-11T08:35:13;14.63;;;9.67;;
5591;SDS011;2818;49.790;9.958;2022-12-11T08:37:40;15.47;;;10.10;;
5591;SDS011;2818;49.790;9.958;2022-12-11T08:40:08;17.70;;;10.30;;
5591;SDS011;2818;49.790;9.958;2022-12-11T08:42:36;14.30;;;9.90;;
5591;SDS011;2818;49.790;9.958;2022-12-11T08:45:03;14.57;;;9.87;;
5591;SDS011;2818;49.790;9.958;2022-12-11T08:47:31;16.40;;;9.80;;
5591;SDS011;2818;49.790;9.958;2022-12-11T08:49:57;14.80;;;10.63;;
5591;SDS011;2818;49.790;9.958;2022-12-11T08:52:24;15.57;;;10.13;;
5591;SDS011;2818;49.790;9.958;2022-12-11T08:54:51;15.33;;;10.43;;
5591;SDS011;2818;49.790;9.958;2022-12-11T08:57:18;13.10;;;9.67;;
5591;SDS011;2818;49.790;9.958;2022-12-11T08:59:45;14.20;;;9.73;;
5591;SDS011;2818;49.790;9.958;2022-12-11T09:02:12;15.60;;;10.80;;
5591;SDS011;2818;49.790;9.958;2022-12-11T09:04:39;13.93;;;9.63;;
5591;SDS011;2818;49.790;9.958;2022-12-11T09:07:06;16.23;;;10.70;;
5591;SDS011;2818;49.790;9.958;2022-12-11T09:09:33;14.20;;;10.40;;
5591;SDS011;2818;49.790;9.958;2022-12-11T09:12:00;18.30;;;10.60;;
5591;SDS011;2818;49.790;9.958;2022-12-11T09:14:26;15.80;;;10.23;;
5591;SDS011;2818;49.790;9.958;2022-12-11T09:16:53;16.00;;;9.93;;
5591;SDS011;2818;49.790;9.958;2022-12-11T09:19:20;15.40;;;10.57;;
5591;SDS011;2818;49.790;9.958;2022-12-11T09:21:50;15.40;;;10.67;;
5591;SDS011;2818;49.790;9.958;2022-12-11T09:24:17;14.80;;;9.90;;
5591;SDS011;2818;49.790;9.958;2022-12-11T09:26:44;15.93;;;10.13;;
5591;SDS011;2818;49.790;9.958;2022-12-11T09:29:12;16.77;;;10.37;;
5591;SDS011;2818;49.790;9.958;2022-12-11T09:31:39;19.37;;;10.67;;
5591;SDS011;2818;49.790;9.958;2022-12-11T09:34:07;17.20;;;11.00;;
5591;SDS011;2818;49.790;9.958;2022-12-11T09:36:34;17.30;;;10.90;;
5591;SDS011;2818;49.790;9.958;2022-12-11T09:39:05;17.50;;;11.23;;
5591;SDS011;2818;49.790;9.958;2022-12-11T09:41:35;19.13;;;11.13;;
5591;SDS011;2818;49.790;9.958;2022-12-11T09:44:29;14.43;;;10.03;;
5591;SDS011;2818;49.790;9.958;2022-12-11T09:47:25;13.90;;;9.77;;
5591;SDS011;2818;49.790;9.958;2022-12-11T09:52:36;15.43;;;9.93;;
5591;SDS011;2818;49.790;9.958;2022-12-11T09:55:20;16.83;;;10.83;;
5591;SDS011;2818;49.790;9.958;2022-12-11T10:00:26;15.43;;;10.23;;
5591;SDS011;2818;49.790;9.958;2022-12-11T10:06:00;15.83;;;9.80;;
5591;SDS011;2818;49.790;9.958;2022-12-11T10:17:06;16.07;;;10.53;;
5591;SDS011;2818;49.790;9.958;2022-12-11T10:19:48;14.87;;;9.70;;
5591;SDS011;2818;49.790;9.958;2022-12-11T10:22:17;14.30;;;10.20;;
5591;SDS011;2818;49.790;9.958;2022-12-11T10:24:54;14.50;;;10.60;;
5591;SDS011;2818;49.790;9.958;2022-12-11T10:27:37;13.37;;;9.17;;
5591;SDS011;2818;49.790;9.958;2022-12-11T10:30:21;14.93;;;10.30;;
5591;SDS011;2818;49.790;9.958;2022-12-11T10:35:34;13.00;;;8.53;;
5591;SDS011;2818;49.790;9.958;2022-12-11T10:38:12;8.77;;;7.13;;
5591;SDS011;2818;49.790;9.958;2022-12-11T10:43:34;12.80;;;8.90;;
5591;SDS011;2818;49.790;9.958;2022-12-11T10:46:06;11.93;;;9.03;;
5591;SDS011;2818;49.790;9.958;2022-12-11T10:48:48;12.40;;;8.30;;
5591;SDS011;2818;49.790;9.958;2022-12-11T10:51:23;13.03;;;9.30;;
5591;SDS011;2818;49.790;9.958;2022-12-11T10:54:00;21.33;;;13.73;;
5591;SDS011;2818;49.790;9.958;2022-12-11T10:56:33;10.27;;;7.30;;
5591;SDS011;2818;49.790;9.958;2022-12-11T10:59:01;8.80;;;7.37;;
5591;SDS011;2818;49.790;9.958;2022-12-11T11:01:29;11.70;;;7.70;;
5591;SDS011;2818;49.790;9.958;2022-12-11T11:06:40;11.83;;;8.77;;
5591;SDS011;2818;49.790;9.958;2022-12-11T11:09:26;12.70;;;8.90;;
5591;SDS011;2818;49.790;9.958;2022-12-11T11:11:59;13.50;;;8.87;;
5591;SDS011;2818;49.790;9.958;2022-12-11T11:14:33;15.10;;;9.50;;
5591;SDS011;2818;49.790;9.958;2022-12-11T11:17:00;12.63;;;9.17;;
5591;SDS011;2818;49.790;9.958;2022-12-11T11:19:31;11.53;;;8.10;;
5591;SDS011;2818;49.790;9.958;2022-12-11T11:22:06;11.50;;;8.30;;
5591;SDS011;2818;49.790;9.958;2022-12-11T11:24:39;12.53;;;7.50;;
5591;SDS011;2818;49.790;9.958;2022-12-11T11:27:13;11.50;;;8.30;;
5591;SDS011;2818;49.790;9.958;2022-12-11T11:29:53;14.00;;;8.83;;
5591;SDS011;2818;49.790;9.958;2022-12-11T11:32:22;13.53;;;8.87;;
5591;SDS011;2818;49.790;9.958;2022-12-11T11:34:51;14.03;;;9.00;;
5591;SDS011;2818;49.790;9.958;2022-12-11T11:40:21;12.10;;;8.80;;
5591;SDS011;2818;49.790;9.958;2022-12-11T11:43:12;12.10;;;8.60;;
5591;SDS011;2818;49.790;9.958;2022-12-11T11:45:43;10.40;;;8.17;;
5591;SDS011;2818;49.790;9.958;2022-12-11T11:48:28;9.60;;;7.20;;
5591;SDS011;2818;49.790;9.958;2022-12-11T11:51:33;12.60;;;8.17;;
5591;SDS011;2818;49.790;9.958;2022-12-11T11:54:02;10.30;;;8.07;;
5591;SDS011;2818;49.790;9.958;2022-12-11T11:56:40;10.40;;;8.13;;
5591;SDS011;2818;49.790;9.958;2022-12-11T11:59:38;14.23;;;9.60;;
5591;SDS011;2818;49.790;9.958;2022-12-11T12:02:12;15.50;;;9.70;;
5591;SDS011;2818;49.790;9.958;2022-12-11T12:04:41;14.40;;;9.50;;
5591;SDS011;2818;49.790;9.958;2022-12-11T12:09:57;12.83;;;9.77;;
5591;SDS011;2818;49.790;9.958;2022-12-11T12:12:48;13.50;;;9.67;;
5591;SDS011;2818;49.790;9.958;2022-12-11T12:21:14;17.10;;;9.40;;
5591;SDS011;2818;49.790;9.958;2022-12-11T12:26:27;11.70;;;8.73;;
5591;SDS011;2818;49.790;9.958;2022-12-11T12:28:58;13.20;;;8.87;;
5591;SDS011;2818;49.790;9.958;2022-12-11T12:45:31;14.77;;;9.83;;
5591;SDS011;2818;49.790;9.958;2022-12-11T12:47:59;15.03;;;9.93;;
5591;SDS011;2818;49.790;9.958;2022-12-11T12:50:28;16.10;;;10.10;;
5591;SDS011;2818;49.790;9.958;2022-12-11T12:53:03;17.00;;;10.30;;
5591;SDS011;2818;49.790;9.958;2022-12-11T12:55:32;17.07;;;10.60;;
5591;SDS011;2818;49.790;9.958;2022-12-11T12:58:01;15.80;;;10.20;;
5591;SDS011;2818;49.790;9.958;2022-12-11T13:00:35;16.47;;;10.43;;
5591;SDS011;2818;49.790;9.958;2022-12-11T13:03:17;14.00;;;10.00;;
5591;SDS011;2818;49.790;9.958;2022-12-11T13:06:00;13.43;;;8.87;;
5591;SDS011;2818;49.790;9.958;2022-12-11T13:08:30;13.90;;;8.90;;
5591;SDS011;2818;49.790;9.958;2022-12-11T13:11:05;11.33;;;8.93;;
5591;SDS011;2818;49.790;9.958;2022-12-11T13:13:40;12.00;;;7.80;;
5591;SDS011;2818;49.790;9.958;2022-12-11T13:18:45;15.70;;;9.47;;
5591;SDS011;2818;49.790;9.958;2022-12-11T13:21:24;12.13;;;8.30;;
5591;SDS011;2818;49.790;9.958;2022-12-11T13:23:53;12.67;;;9.00;;
5591;SDS011;2818;49.790;9.958;2022-12-11T13:26:32;13.50;;;8.50;;
5591;SDS011;2818;49.790;9.958;2022-12-11T13:28:59;12.60;;;8.90;;
5591;SDS011;2818;49.790;9.958;2022-12-11T13:31:28;12.53;;;8.90;;
5591;SDS011;2818;49.790;9.958;2022-12-11T13:34:14;12.70;;;9.43;;
5591;SDS011;2818;49.790;9.958;2022-12-11T13:36:47;13.17;;;10.00;;
5591;SDS011;2818;49.790;9.958;2022-12-11T13:41:59;12.93;;;9.13;;
5591;SDS011;2818;49.790;9.958;2022-12-11T13:44:30;14.07;;;10.00;;
5591;SDS011;2818;49.790;9.958;2022-12-11T13:47:03;13.77;;;9.50;;
5591;SDS011;2818;49.790;9.958;2022-12-11T13:49:39;13.90;;;9.23;;
5591;SDS011;2818;49.790;9.958;2022-12-11T13:52:21;13.20;;;9.77;;
5591;SDS011;2818;49.790;9.958;2022-12-11T13:54:54;15.23;;;9.37;;
5591;SDS011;2818;49.790;9.958;2022-12-11T13:57:24;13.53;;;9.27;;
5591;SDS011;2818;49.790;9.958;2022-12-11T13:59:56;15.77;;;9.43;;
5591;SDS011;2818;49.790;9.958;2022-12-11T14:02:32;16.67;;;9.87;;
5591;SDS011;2818;49.790;9.958;2022-12-11T14:05:07;17.80;;;9.83;;
5591;SDS011;2818;49.790;9.958;2022-12-11T14:07:37;15.93;;;10.40;;
5591;SDS011;2818;49.790;9.958;2022-12-11T14:13:05;13.47;;;9.17;;
5591;SDS011;2818;49.790;9.958;2022-12-11T14:15:43;15.83;;;10.30;;
5591;SDS011;2818;49.790;9.958;2022-12-11T14:18:14;12.77;;;9.13;;
5591;SDS011;2818;49.790;9.958;2022-12-11T14:20:51;15.03;;;10.33;;
5591;SDS011;2818;49.790;9.958;2022-12-11T14:23:30;17.03;;;11.30;;
5591;SDS011;2818;49.790;9.958;2022-12-11T14:25:59;27.23;;;15.27;;
5591;SDS011;2818;49.790;9.958;2022-12-11T14:28:33;44.60;;;21.90;;
5591;SDS011;2818;49.790;9.958;2022-12-11T14:31:03;36.67;;;18.37;;
5591;SDS011;2818;49.790;9.958;2022-12-11T14:33:33;30.70;;;16.10;;
5591;SDS011;2818;49.790;9.958;2022-12-11T14:36:04;24.53;;;13.60;;
5591;SDS011;2818;49.790;9.958;2022-12-11T14:38:33;19.90;;;11.93;;
5591;SDS011;2818;49.790;9.958;2022-12-11T14:41:15;21.07;;;12.60;;
5591;SDS011;2818;49.790;9.958;2022-12-11T14:44:03;23.50;;;12.70;;
5591;SDS011;2818;49.790;9.958;2022-12-11T14:46:35;19.23;;;11.10;;
5591;SDS011;2818;49.790;9.958;2022-12-11T14:49:13;21.17;;;12.87;;
5591;SDS011;2818;49.790;9.958;2022-12-11T14:51:47;20.93;;;12.77;;
5591;SDS011;2818;49.790;9.958;2022-12-11T14:54:28;22.17;;;12.73;;
5591;SDS011;2818;49.790;9.958;2022-12-11T14:56:56;26.13;;;12.67;;
5591;SDS011;2818;49.790;9.958;2022-12-11T14:59:24;21.27;;;12.60;;
5591;SDS011;2818;49.790;9.958;2022-12-11T15:02:01;21.97;;;12.50;;
5591;SDS011;2818;49.790;9.958;2022-12-11T15:04:56;22.47;;;12.87;;
5591;SDS011;2818;49.790;9.958;2022-12-11T15:07:28;22.87;;;13.20;;
5591;SDS011;2818;49.790;9.958;2022-12-11T15:09:55;23.77;;;12.93;;
5591;SDS011;2818;49.790;9.958;2022-12-11T15:12:22;22.73;;;13.30;;
5591;SDS011;2818;49.790;9.958;2022-12-11T15:17:16;25.67;;;14.50;;
5591;SDS011;2818;49.790;9.958;2022-12-11T15:19:45;25.27;;;14.20;;
5591;SDS011;2818;49.790;9.958;2022-12-11T15:22:16;33.53;;;19.60;;
5591;SDS011;2818;49.790;9.958;2022-12-11T15:24:44;21.80;;;12.90;;
5591;SDS011;2818;49.790;9.958;2022-12-11T15:29:48;22.90;;;13.53;;
5591;SDS011;2818;49.790;9.958;2022-12-11T15:32:16;26.77;;;15.67;;
5591;SDS011;2818;49.790;9.958;2022-12-11T15:37:30;31.53;;;16.70;;
5591;SDS011;2818;49.790;9.958;2022-12-11T15:39:59;30.77;;;14.30;;
5591;SDS011;2818;49.790;9.958;2022-12-11T15:42:29;28.27;;;16.10;;
5591;SDS011;2818;49.790;9.958;2022-12-11T15:45:01;32.07;;;17.67;;
5591;SDS011;2818;49.790;9.958;2022-12-11T15:47:30;26.20;;;14.93;;
5591;SDS011;2818;49.790;9.958;2022-12-11T15:49:59;26.17;;;15.63;;
5591;SDS011;2818;49.790;9.958;2022-12-11T15:52:28;92.00;;;39.87;;
5591;SDS011;2818;49.790;9.958;2022-12-11T15:54:55;32.10;;;17.10;;
5591;SDS011;2818;49.790;9.958;2022-12-11T15:57:22;22.33;;;14.50;;
5591;SDS011;2818;49.790;9.958;2022-12-11T15:59:50;23.07;;;14.13;;
5591;SDS011;2818;49.790;9.958;2022-12-11T16:02:19;25.47;;;14.43;;
5591;SDS011;2818;49.790;9.958;2022-12-11T16:04:46;27.00;;;15.43;;
5591;SDS011;2818;49.790;9.958;2022-12-11T16:07:16;25.10;;;14.00;;
5591;SDS011;2818;49.790;9.958;2022-12-11T16:09:46;24.50;;;14.67;;
5591;SDS011;2818;49.790;9.958;2022-12-11T16:12:13;28.50;;;16.10;;
5591;SDS011;2818;49.790;9.958;2022-12-11T16:14:41;26.97;;;14.40;;
5591;SDS011;2818;49.790;9.958;2022-12-11T16:17:09;37.80;;;18.27;;
5591;SDS011;2818;49.790;9.958;2022-12-11T16:19:37;27.20;;;15.00;;
5591;SDS011;2818;49.790;9.958;2022-12-11T16:22:04;26.03;;;15.23;;
5591;SDS011;2818;49.790;9.958;2022-12-11T16:24:34;22.50;;;14.10;;
5591;SDS011;2818;49.790;9.958;2022-12-11T16:27:02;30.47;;;17.10;;
5591;SDS011;2818;49.790;9.958;2022-12-11T16:29:34;25.00;;;14.87;;
5591;SDS011;2818;49.790;9.958;2022-12-11T16:32:05;27.40;;;15.50;;
5591;SDS011;2818;49.790;9.958;2022-12-11T16:34:34;27.40;;;13.87;;
5591;SDS011;2818;49.790;9.958;2022-12-11T16:37:03;20.83;;;12.57;;
5591;SDS011;2818;49.790;9.958;2022-12-11T16:39:31;24.70;;;13.33;;
5591;SDS011;2818;49.790;9.958;2022-12-11T16:41:58;23.70;;;14.10;;